createdAt,value
2022-08-19T00:00:36.276Z,20.3
2022-08-19T00:01:38.022Z,20.33
2022-08-19T00:02:36.307Z,20.28
2022-08-19T00:03:35.557Z,20.27
2022-08-19T00:04:36.243Z,20.28
2022-08-19T00:05:35.623Z,20.4
2022-08-19T00:06:36.645Z,20.29
2022-08-19T00:07:35.504Z,20.26
2022-08-19T00:08:35.466Z,20.34
2022-08-19T00:09:35.707Z,20.3
2022-08-19T00:10:35.535Z,20.28
2022-08-19T00:11:35.647Z,20.26
2022-08-19T00:12:35.536Z,20.26
2022-08-19T00:13:38.556Z,20.32
2022-08-19T00:14:39.123Z,20.25
2022-08-19T00:15:38.542Z,20.22
2022-08-19T00:16:39.492Z,20.32
2022-08-19T00:17:41.999Z,20.33
2022-08-19T00:18:38.555Z,20.26
2022-08-19T00:19:39.075Z,20.32
2022-08-19T00:20:38.699Z,20.37
2022-08-19T00:21:38.738Z,20.43
2022-08-19T00:22:39.364Z,20.39
2022-08-19T00:23:38.800Z,20.26
2022-08-19T00:24:38.823Z,20.32
2022-08-19T00:25:39.060Z,20.33
2022-08-19T00:26:39.054Z,20.32
2022-08-19T00:27:39.204Z,20.33
2022-08-19T00:28:38.826Z,20.3
2022-08-19T00:29:39.051Z,20.27
2022-08-19T00:30:38.912Z,20.28
2022-08-19T00:31:39.507Z,20.22
2022-08-19T00:32:39.466Z,20.25
2022-08-19T00:33:39.021Z,20.23
2022-08-19T00:34:38.958Z,20.16
2022-08-19T00:35:38.942Z,20.18
2022-08-19T00:36:39.524Z,20.1
2022-08-19T00:37:39.156Z,20.19
2022-08-19T00:38:40.237Z,20.18
2022-08-19T00:39:39.172Z,20.15
2022-08-19T00:40:39.104Z,20.19
2022-08-19T00:41:39.600Z,20.14
2022-08-19T00:42:39.074Z,20.17
2022-08-19T00:43:39.195Z,20.17
2022-08-19T00:44:39.153Z,20.07
2022-08-19T00:45:39.401Z,20.08
2022-08-19T00:46:40.297Z,20.14
2022-08-19T00:47:39.220Z,20.12
2022-08-19T00:48:39.030Z,20.12
2022-08-19T00:49:44.321Z,20.11
2022-08-19T00:50:52.089Z,20.12
2022-08-19T00:51:45.720Z,20.09
2022-08-19T00:52:46.013Z,20.11
2022-08-19T00:53:43.988Z,19.95
2022-08-19T00:54:47.829Z,19.99
2022-08-19T00:55:48.435Z,20.03
2022-08-19T00:56:48.848Z,20.12
2022-08-19T00:57:52.553Z,20.14
2022-08-19T00:58:49.423Z,20.12
2022-08-19T01:00:01.154Z,20.13
2022-08-19T01:00:54.377Z,20.16
2022-08-19T01:01:54.622Z,20.19
2022-08-19T01:02:54.724Z,20.12
2022-08-19T01:03:57.541Z,20.09
2022-08-19T01:04:55.057Z,20.15
2022-08-19T01:05:55.119Z,20.14
2022-08-19T01:06:55.040Z,20.24
2022-08-19T01:07:56.066Z,20.18
2022-08-19T01:08:55.688Z,20.2
2022-08-19T01:09:55.162Z,20.18
2022-08-19T01:10:56.220Z,20.09
2022-08-19T01:11:55.248Z,20.03
2022-08-19T01:12:55.583Z,20.13
2022-08-19T01:13:55.063Z,20.19
2022-08-19T01:14:56.485Z,20.2
2022-08-19T01:15:57.465Z,20.18
2022-08-19T01:16:56.057Z,20.02
2022-08-19T01:17:56.230Z,19.91
2022-08-19T01:18:55.133Z,19.99
2022-08-19T01:19:55.143Z,20.1
2022-08-19T01:20:57.185Z,20.06
2022-08-19T01:23:00.259Z,20.01
2022-08-19T01:24:00.242Z,20
2022-08-19T01:25:00.303Z,20.03
2022-08-19T01:26:00.241Z,20.15
2022-08-19T01:27:00.246Z,20.2
2022-08-19T01:28:09.861Z,20.26
2022-08-19T01:29:02.617Z,20.18
2022-08-19T01:30:02.613Z,20.19
2022-08-19T01:31:07.076Z,20.14
2022-08-19T01:32:04.941Z,20.11
2022-08-19T01:33:04.860Z,20.03
2022-08-19T01:34:05.350Z,19.98
2022-08-19T01:35:05.397Z,20.06
2022-08-19T01:36:09.468Z,20.13
2022-08-19T01:37:10.294Z,20.15
2022-08-19T01:38:08.195Z,20.17
2022-08-19T01:39:09.851Z,20.08
2022-08-19T01:40:09.442Z,20.08
2022-08-19T01:41:10.881Z,20.14
2022-08-19T01:42:08.950Z,20.25
2022-08-19T01:43:07.749Z,20.17
2022-08-19T01:44:17.526Z,20.14
2022-08-19T01:45:11.376Z,20.06
2022-08-19T01:46:11.058Z,20.07
2022-08-19T01:47:10.835Z,20.09
2022-08-19T01:48:10.991Z,20.09
2022-08-19T01:49:10.895Z,20.15
2022-08-19T01:50:11.964Z,20.14
2022-08-19T01:51:11.526Z,20.13
2022-08-19T01:52:10.934Z,20.08
2022-08-19T01:53:11.562Z,20.08
2022-08-19T01:54:12.892Z,20.11
2022-08-19T01:55:13.191Z,20.11
2022-08-19T01:56:11.036Z,20.09
2022-08-19T01:57:13.475Z,19.98
2022-08-19T01:58:13.154Z,19.95
2022-08-19T01:59:15.342Z,20
2022-08-19T02:00:13.569Z,19.96
2022-08-19T02:01:11.938Z,19.9
2022-08-19T02:02:11.841Z,19.94
2022-08-19T02:03:12.062Z,19.96
2022-08-19T02:04:12.151Z,19.99
2022-08-19T02:05:12.562Z,19.98
2022-08-19T02:06:11.896Z,19.91
2022-08-19T02:07:11.880Z,19.86
2022-08-19T02:08:12.417Z,19.8
2022-08-19T02:09:12.010Z,19.83
2022-08-19T02:10:14.066Z,19.8
2022-08-19T02:11:19.451Z,19.82
2022-08-19T02:12:15.971Z,19.74
2022-08-19T02:13:16.017Z,19.74
2022-08-19T02:14:17.685Z,19.69
2022-08-19T02:15:18.629Z,19.65
2022-08-19T02:16:18.421Z,19.55
2022-08-19T02:17:17.650Z,19.51
2022-08-19T02:18:18.078Z,19.45
2022-08-19T02:19:17.795Z,19.46
2022-08-19T02:20:17.970Z,19.42
2022-08-19T02:21:18.637Z,19.41
2022-08-19T02:22:17.887Z,19.47
2022-08-19T02:23:17.887Z,19.47
2022-08-19T02:24:17.962Z,19.4
2022-08-19T02:25:17.979Z,19.42
2022-08-19T02:26:18.256Z,19.44
2022-08-19T02:27:17.950Z,19.5
2022-08-19T02:28:18.915Z,19.51
2022-08-19T02:29:17.866Z,19.49
2022-08-19T02:30:18.515Z,19.49
2022-08-19T02:31:20.293Z,19.67
2022-08-19T02:32:18.473Z,19.64
2022-08-19T02:33:17.977Z,19.51
2022-08-19T02:34:18.379Z,19.45
2022-08-19T02:35:18.181Z,19.36
2022-08-19T02:36:20.562Z,19.34
2022-08-19T02:37:17.978Z,19.3
2022-08-19T02:38:18.045Z,19.35
2022-08-19T02:39:18.135Z,19.36
2022-08-19T02:40:18.133Z,19.35
2022-08-19T02:41:19.578Z,19.43
2022-08-19T02:42:18.074Z,19.44
2022-08-19T02:43:18.114Z,19.43
2022-08-19T02:44:29.554Z,19.37
2022-08-19T02:45:23.089Z,19.33
2022-08-19T02:46:24.872Z,19.35
2022-08-19T02:47:23.086Z,19.37
2022-08-19T02:48:24.172Z,19.32
2022-08-19T02:49:23.186Z,19.32
2022-08-19T02:50:23.060Z,19.38
2022-08-19T02:51:25.015Z,19.35
2022-08-19T02:52:23.134Z,19.29
2022-08-19T02:53:24.113Z,19.32
2022-08-19T02:54:23.337Z,19.32
2022-08-19T02:55:23.053Z,19.43
2022-08-19T02:56:23.450Z,19.52
2022-08-19T02:57:23.125Z,19.39
2022-08-19T02:58:23.253Z,19.34
2022-08-19T02:59:23.281Z,19.28
2022-08-19T03:00:23.443Z,19.33
2022-08-19T03:01:24.736Z,19.32
2022-08-19T03:02:23.335Z,19.3
2022-08-19T03:03:23.450Z,19.35
2022-08-19T03:04:23.529Z,19.38
2022-08-19T03:05:30.524Z,19.33
2022-08-19T03:06:24.860Z,19.36
2022-08-19T03:07:24.643Z,19.39
2022-08-19T03:08:25.631Z,19.4
2022-08-19T03:09:24.759Z,19.38
2022-08-19T03:10:24.872Z,19.32
2022-08-19T03:12:26.370Z,19.26
2022-08-19T03:13:26.104Z,19.27
2022-08-19T03:14:26.042Z,19.25
2022-08-19T03:15:26.225Z,19.26
2022-08-19T03:16:27.570Z,19.3
2022-08-19T03:17:25.968Z,19.23
2022-08-19T03:18:26.040Z,19.25
2022-08-19T03:19:26.278Z,19.29
2022-08-19T03:20:26.109Z,19.28
2022-08-19T03:21:26.808Z,19.31
2022-08-19T03:22:26.147Z,19.31
2022-08-19T03:23:26.140Z,19.29
2022-08-19T03:24:26.173Z,19.23
2022-08-19T03:25:26.402Z,19.15
2022-08-19T03:26:26.724Z,19.22
2022-08-19T03:27:30.075Z,19.3
2022-08-19T03:28:26.294Z,19.28
2022-08-19T03:29:30.783Z,19.29
2022-08-19T03:30:27.722Z,19.2
2022-08-19T03:31:43.518Z,19.23
2022-08-19T03:32:33.381Z,19.26
2022-08-19T03:33:34.227Z,19.28
2022-08-19T03:34:33.874Z,19.22
2022-08-19T03:35:32.901Z,19.18
2022-08-19T03:36:32.882Z,19.22
2022-08-19T03:37:32.866Z,19.27
2022-08-19T03:38:32.974Z,19.38
2022-08-19T03:39:33.007Z,19.35
2022-08-19T03:40:33.920Z,19.32
2022-08-19T03:41:45.876Z,19.38
2022-08-19T03:42:48.623Z,19.34
2022-08-19T03:43:37.552Z,19.36
2022-08-19T03:44:36.837Z,19.45
2022-08-19T03:45:36.461Z,19.52
2022-08-19T03:46:36.664Z,19.53
2022-08-19T03:47:36.966Z,19.61
2022-08-19T03:48:37.623Z,19.68
2022-08-19T03:49:36.989Z,19.72
2022-08-19T03:50:40.206Z,19.73
2022-08-19T03:51:38.934Z,19.72
2022-08-19T03:52:37.398Z,19.8
2022-08-19T03:53:37.132Z,19.82
2022-08-19T03:54:37.468Z,19.77
2022-08-19T03:55:41.190Z,19.81
2022-08-19T03:56:39.046Z,19.83
2022-08-19T03:57:38.174Z,19.8
2022-08-19T03:58:38.154Z,19.87
2022-08-19T03:59:40.511Z,19.95
2022-08-19T04:00:38.232Z,19.93
2022-08-19T04:01:38.344Z,19.94
2022-08-19T04:02:38.191Z,19.92
2022-08-19T04:03:38.528Z,19.89
2022-08-19T04:04:41.815Z,19.98
2022-08-19T04:05:38.570Z,19.98
2022-08-19T04:06:40.036Z,20
2022-08-19T04:07:38.685Z,19.97
2022-08-19T04:08:38.995Z,19.98
2022-08-19T04:09:38.827Z,20.01
2022-08-19T04:10:39.586Z,20.02
2022-08-19T04:11:43.470Z,19.98
2022-08-19T04:12:41.386Z,19.97
2022-08-19T04:13:41.565Z,20.03
2022-08-19T04:14:41.569Z,20.05
2022-08-19T04:15:42.483Z,20.05
2022-08-19T04:16:41.540Z,20.06
2022-08-19T04:17:41.432Z,20.09
2022-08-19T04:18:41.590Z,20.1
2022-08-19T04:19:41.712Z,20.14
2022-08-19T04:20:45.377Z,20.12
2022-08-19T04:21:44.147Z,20.1
2022-08-19T04:22:42.369Z,20.08
2022-08-19T04:23:45.517Z,20.18
2022-08-19T04:24:44.089Z,20.23
2022-08-19T04:25:44.836Z,20.25
2022-08-19T04:26:44.593Z,20.36
2022-08-19T04:27:44.312Z,20.45
2022-08-19T04:28:44.458Z,20.48
2022-08-19T04:29:44.271Z,20.47
2022-08-19T04:30:45.743Z,20.45
2022-08-19T04:31:45.105Z,20.43
2022-08-19T04:32:44.173Z,20.37
2022-08-19T04:33:44.630Z,20.39
2022-08-19T04:35:01.326Z,20.41
2022-08-19T04:35:46.518Z,20.66
2022-08-19T04:36:46.014Z,20.56
2022-08-19T04:37:45.811Z,20.59
2022-08-19T04:38:45.771Z,20.72
2022-08-19T04:39:46.122Z,20.61
2022-08-19T04:40:47.302Z,20.63
2022-08-19T04:41:46.603Z,20.57
2022-08-19T04:42:45.933Z,20.58
2022-08-19T04:43:46.055Z,20.52
2022-08-19T04:44:46.430Z,20.53
2022-08-19T04:45:46.142Z,20.62
2022-08-19T04:46:51.140Z,20.6
2022-08-19T04:47:58.669Z,20.61
2022-08-19T04:48:49.963Z,20.56
2022-08-19T04:49:49.954Z,20.65
2022-08-19T04:50:49.932Z,20.63
2022-08-19T04:51:51.082Z,20.68
2022-08-19T04:52:51.361Z,20.69
2022-08-19T04:53:50.322Z,20.59
2022-08-19T04:54:50.058Z,20.65
2022-08-19T04:55:50.044Z,20.65
2022-08-19T04:56:50.843Z,20.73
2022-08-19T04:57:50.231Z,20.66
2022-08-19T04:58:50.951Z,20.67
2022-08-19T04:59:50.210Z,20.73
2022-08-19T05:00:50.299Z,20.77
2022-08-19T05:01:50.482Z,20.75
2022-08-19T05:02:50.369Z,20.72
2022-08-19T05:03:50.350Z,20.73
2022-08-19T05:04:50.151Z,20.77
2022-08-19T05:05:50.198Z,20.77
2022-08-19T05:06:50.752Z,20.84
2022-08-19T05:07:50.260Z,21.12
2022-08-19T05:08:50.420Z,21.14
2022-08-19T05:09:58.075Z,21.02
2022-08-19T05:10:51.699Z,20.98
2022-08-19T05:11:50.413Z,20.98
2022-08-19T05:12:50.534Z,21.17
2022-08-19T05:13:50.513Z,21.06
2022-08-19T05:14:50.599Z,21.12
2022-08-19T05:16:00.010Z,21.15
2022-08-19T05:17:02.445Z,21.08
2022-08-19T05:17:53.048Z,21.22
2022-08-19T05:18:53.173Z,21.22
2022-08-19T05:19:53.223Z,21.3
2022-08-19T05:20:53.028Z,21.39
2022-08-19T05:21:53.111Z,21.46
2022-08-19T05:22:53.240Z,21.54
2022-08-19T05:23:53.121Z,21.41
2022-08-19T05:25:11.802Z,21.4
2022-08-19T05:25:54.399Z,21.42
2022-08-19T05:26:55.775Z,21.46
2022-08-19T05:27:54.284Z,21.47
2022-08-19T05:28:54.652Z,21.37
2022-08-19T05:29:54.375Z,21.4
2022-08-19T05:30:54.655Z,21.51
2022-08-19T05:31:55.449Z,21.5
2022-08-19T05:32:54.808Z,21.55
2022-08-19T05:33:54.510Z,21.58
2022-08-19T05:34:54.631Z,21.48
2022-08-19T05:35:54.541Z,21.57
2022-08-19T05:36:56.809Z,21.52
2022-08-19T05:37:54.990Z,21.64
2022-08-19T05:38:56.047Z,21.73
2022-08-19T05:39:55.910Z,21.72
2022-08-19T05:40:55.785Z,21.73
2022-08-19T05:41:57.302Z,21.74
2022-08-19T05:42:55.881Z,21.84
2022-08-19T05:43:56.826Z,21.84
2022-08-19T05:44:55.814Z,21.81
2022-08-19T05:45:55.834Z,21.94
2022-08-19T05:46:55.848Z,21.96
2022-08-19T05:47:55.878Z,21.95
2022-08-19T05:48:56.139Z,22.05
2022-08-19T05:49:55.888Z,22.06
2022-08-19T05:50:55.895Z,22.13
2022-08-19T05:51:56.374Z,22.08
2022-08-19T05:52:56.039Z,22.17
2022-08-19T05:53:56.091Z,22.19
2022-08-19T05:54:56.340Z,22.22
2022-08-19T05:55:55.903Z,22.28
2022-08-19T05:56:55.960Z,22.23
2022-08-19T05:57:56.187Z,22.29
2022-08-19T05:58:56.171Z,22.39
2022-08-19T05:59:58.595Z,22.27
2022-08-19T06:00:56.065Z,22.22
2022-08-19T06:01:56.006Z,22.36
2022-08-19T06:02:56.414Z,22.35
2022-08-19T06:03:56.093Z,22.45
2022-08-19T06:04:56.076Z,22.49
2022-08-19T06:05:56.064Z,22.59
2022-08-19T06:06:56.112Z,22.67
2022-08-19T06:07:56.259Z,22.69
2022-08-19T06:08:56.292Z,22.91
2022-08-19T06:10:00.411Z,22.84
2022-08-19T06:10:57.838Z,22.72
2022-08-19T06:11:58.877Z,22.73
2022-08-19T06:12:57.627Z,22.75
2022-08-19T06:13:59.493Z,22.76
2022-08-19T06:15:01.075Z,22.93
2022-08-19T06:15:58.309Z,22.98
2022-08-19T06:16:58.926Z,22.92
2022-08-19T06:17:58.368Z,23.02
2022-08-19T06:19:00.309Z,23.02
2022-08-19T06:19:58.444Z,23.12
2022-08-19T06:20:58.426Z,23.11
2022-08-19T06:21:59.143Z,23.25
2022-08-19T06:22:58.472Z,23.22
2022-08-19T06:23:59.617Z,23.28
2022-08-19T06:24:58.512Z,23.21
2022-08-19T06:25:58.434Z,23.12
2022-08-19T06:27:01.758Z,23.24
2022-08-19T06:28:14.522Z,23.16
2022-08-19T06:29:02.937Z,23.25
2022-08-19T06:30:02.842Z,23.26
2022-08-19T06:31:06.472Z,23.29
2022-08-19T06:32:04.062Z,23.28
2022-08-19T06:33:03.588Z,23.43
2022-08-19T06:34:04.698Z,23.37
2022-08-19T06:35:03.611Z,23.44
2022-08-19T06:36:03.744Z,23.45
2022-08-19T06:37:03.488Z,23.55
2022-08-19T06:38:03.534Z,23.63
2022-08-19T06:39:07.126Z,23.69
2022-08-19T06:40:04.654Z,23.72
2022-08-19T06:41:07.645Z,23.71
2022-08-19T06:42:06.046Z,23.75
2022-08-19T06:43:05.658Z,23.91
2022-08-19T06:44:06.835Z,23.95
2022-08-19T06:45:10.421Z,23.86
2022-08-19T06:46:11.313Z,23.9
2022-08-19T06:47:14.746Z,23.75
2022-08-19T06:48:15.264Z,23.74
2022-08-19T06:49:15.213Z,24.04
2022-08-19T06:50:15.266Z,23.89
2022-08-19T06:51:19.227Z,23.89
2022-08-19T06:52:16.419Z,23.81
2022-08-19T06:53:16.509Z,23.86
2022-08-19T06:54:19.247Z,24.01
2022-08-19T06:55:16.826Z,23.81
2022-08-19T06:56:17.734Z,23.76
2022-08-19T06:57:16.833Z,23.87
2022-08-19T06:58:16.829Z,24.01
2022-08-19T06:59:18.391Z,24.08
2022-08-19T07:00:17.247Z,24.15
2022-08-19T07:01:16.847Z,24.15
2022-08-19T07:03:17.501Z,24.24
2022-08-19T07:04:18.221Z,24.24
2022-08-19T07:05:16.932Z,24.37
2022-08-19T07:06:43.100Z,24.36
2022-08-19T07:07:21.399Z,24.36
2022-08-19T07:08:19.763Z,24.33
2022-08-19T07:09:19.637Z,24.27
2022-08-19T07:10:19.659Z,24.39
2022-08-19T07:11:19.927Z,24.54
2022-08-19T07:12:19.817Z,24.41
2022-08-19T07:13:19.748Z,24.48
2022-08-19T07:14:20.981Z,24.52
2022-08-19T07:15:19.967Z,24.48
2022-08-19T07:16:20.424Z,24.54
2022-08-19T07:17:20.481Z,24.56
2022-08-19T07:18:21.358Z,24.55
2022-08-19T07:19:20.708Z,24.65
2022-08-19T07:20:20.434Z,24.71
2022-08-19T07:21:22.476Z,24.67
2022-08-19T07:22:20.608Z,24.68
2022-08-19T07:23:20.508Z,24.7
2022-08-19T07:24:21.355Z,24.72
2022-08-19T07:25:20.655Z,24.79
2022-08-19T07:26:27.862Z,24.77
2022-08-19T07:27:25.425Z,24.88
2022-08-19T07:28:25.161Z,24.89
2022-08-19T07:29:25.765Z,25.01
2022-08-19T07:30:26.297Z,25.16
2022-08-19T07:31:26.187Z,25.28
2022-08-19T07:32:27.729Z,25.32
2022-08-19T07:33:27.826Z,25.28
2022-08-19T07:34:28.954Z,25.36
2022-08-19T07:35:27.588Z,25.5
2022-08-19T07:36:28.810Z,25.34
2022-08-19T07:37:32.373Z,25.38
2022-08-19T07:38:29.438Z,25.49
2022-08-19T07:39:30.965Z,25.47
2022-08-19T07:40:29.757Z,25.44
2022-08-19T07:41:30.038Z,25.46
2022-08-19T07:42:29.518Z,25.52
2022-08-19T07:43:34.738Z,25.56
2022-08-19T07:44:31.851Z,25.5
2022-08-19T07:45:31.861Z,25.38
2022-08-19T07:46:32.525Z,25.51
2022-08-19T07:47:50.424Z,25.51
2022-08-19T07:48:33.360Z,25.31
2022-08-19T07:49:32.740Z,25.5
2022-08-19T07:50:32.929Z,25.63
2022-08-19T07:51:37.034Z,25.75
2022-08-19T07:52:33.819Z,25.84
2022-08-19T07:53:36.707Z,25.78
2022-08-19T07:54:40.697Z,25.84
2022-08-19T07:55:43.564Z,25.85
2022-08-19T07:56:40.742Z,25.75
2022-08-19T07:57:40.638Z,25.83
2022-08-19T07:58:42.047Z,25.74
2022-08-19T07:59:40.721Z,25.76
2022-08-19T08:00:40.845Z,25.84
2022-08-19T08:01:41.490Z,25.86
2022-08-19T08:02:40.791Z,25.93
2022-08-19T08:03:41.440Z,25.66
2022-08-19T08:04:40.721Z,25.81
2022-08-19T08:05:43.678Z,26.07
2022-08-19T08:06:40.875Z,26.03
2022-08-19T08:07:40.975Z,26.03
2022-08-19T08:08:43.887Z,26.03
2022-08-19T08:09:44.063Z,26.14
2022-08-19T08:10:52.976Z,26.07
2022-08-19T08:11:48.649Z,25.89
2022-08-19T08:12:52.621Z,26.16
2022-08-19T08:13:48.542Z,26.28
2022-08-19T08:14:50.728Z,26.31
2022-08-19T08:15:53.008Z,26.36
2022-08-19T08:16:53.325Z,26.1
2022-08-19T08:17:53.090Z,26.2
2022-08-19T08:18:53.318Z,26.23
2022-08-19T08:19:53.424Z,26.19
2022-08-19T08:20:53.002Z,26.31
2022-08-19T08:21:54.107Z,26.3
2022-08-19T08:22:53.256Z,26.3
2022-08-19T08:23:54.506Z,26.39
2022-08-19T08:24:53.083Z,26.44
2022-08-19T08:25:54.297Z,26.29
2022-08-19T08:26:57.610Z,26.37
2022-08-19T08:27:55.336Z,26.24
2022-08-19T08:28:55.237Z,26.2
2022-08-19T08:29:54.990Z,26.34
2022-08-19T08:30:54.927Z,26.33
2022-08-19T08:31:58.490Z,26.61
2022-08-19T08:32:57.390Z,26.51
2022-08-19T08:33:57.245Z,26.45
2022-08-19T08:34:57.326Z,26.67
2022-08-19T08:35:57.704Z,26.68
2022-08-19T08:36:57.308Z,26.68
2022-08-19T08:37:57.674Z,26.77
2022-08-19T08:39:57.476Z,26.98
2022-08-19T08:41:10.283Z,26.59
2022-08-19T08:42:17.567Z,26.41
2022-08-19T08:43:11.334Z,26.72
2022-08-19T08:44:17.148Z,26.92
2022-08-19T08:45:13.860Z,26.88
2022-08-19T08:46:30.435Z,26.87
2022-08-19T08:47:16.415Z,27.17
2022-08-19T08:53:29.590Z,27.18
2022-08-19T08:54:34.954Z,27.34
2022-08-19T08:55:37.068Z,27.02
2022-08-19T08:56:34.375Z,26.96
2022-08-19T08:59:41.381Z,27.04
2022-08-19T09:00:43.764Z,27.09
2022-08-19T09:01:40.368Z,27.04
2022-08-19T09:02:40.273Z,27
2022-08-19T09:03:42.960Z,26.99
2022-08-19T09:04:40.351Z,27.09
2022-08-19T09:11:05.452Z,27.56
2022-08-19T09:15:10.813Z,27.65
2022-08-19T09:17:13.100Z,27.35
2022-08-19T09:18:15.349Z,27.47
2022-08-19T09:19:16.101Z,27.71
2022-08-19T09:20:20.474Z,27.46
2022-08-19T09:21:22.911Z,27.52
2022-08-19T09:22:25.804Z,27.59
2022-08-19T09:23:26.629Z,27.67
2022-08-19T09:24:23.932Z,27.67
2022-08-19T09:25:29.533Z,27.81
2022-08-19T09:26:35.258Z,27.71
2022-08-19T09:27:43.117Z,27.57
2022-08-19T09:28:31.828Z,27.73
2022-08-19T09:29:30.843Z,27.72
2022-08-19T09:30:35.279Z,27.59
2022-08-19T09:31:32.619Z,27.74
2022-08-19T09:32:32.501Z,27.71
2022-08-19T09:33:32.218Z,27.88
2022-08-19T09:34:32.959Z,27.88
2022-08-19T09:35:50.004Z,27.99
2022-08-19T09:36:35.029Z,28.01
2022-08-19T09:37:35.070Z,27.83
2022-08-19T09:38:35.309Z,27.91
2022-08-19T09:39:35.855Z,28
2022-08-19T09:40:38.247Z,27.8
2022-08-19T09:41:35.072Z,27.84
2022-08-19T09:42:35.409Z,27.89
2022-08-19T09:43:44.276Z,27.84
2022-08-19T09:44:37.120Z,27.67
2022-08-19T09:45:37.199Z,27.98
2022-08-19T09:46:37.205Z,27.83
2022-08-19T09:47:37.703Z,27.87
2022-08-19T09:48:37.842Z,27.9
2022-08-19T09:49:37.136Z,28.03
2022-08-19T09:50:37.206Z,28.09
2022-08-19T09:51:37.408Z,28.09
2022-08-19T09:52:37.995Z,27.95
2022-08-19T09:53:38.277Z,28.03
2022-08-19T09:54:37.598Z,28.1
2022-08-19T09:55:42.634Z,27.87
2022-08-19T09:56:39.093Z,27.92
2022-08-19T09:57:39.735Z,27.95
2022-08-19T09:58:39.205Z,27.9
2022-08-19T09:59:40.211Z,28.02
2022-08-19T10:00:39.197Z,28.11
2022-08-19T10:01:39.710Z,28.19
2022-08-19T10:02:39.285Z,28.12
2022-08-19T10:03:39.293Z,28.18
2022-08-19T10:04:39.266Z,28.07
2022-08-19T10:05:42.334Z,28.02
2022-08-19T10:06:45.931Z,28.03
2022-08-19T10:07:43.801Z,28.18
2022-08-19T10:08:50.455Z,28.17
2022-08-19T10:09:47.237Z,28.15
2022-08-19T10:10:47.978Z,28.3
2022-08-19T10:11:54.579Z,28.15
2022-08-19T10:12:51.851Z,28.3
2022-08-19T10:13:51.565Z,28.37
2022-08-19T10:14:51.544Z,28.25
2022-08-19T10:15:52.662Z,28.23
2022-08-19T10:16:51.880Z,28.06
2022-08-19T10:17:55.387Z,28.23
2022-08-19T10:18:53.325Z,28.31
2022-08-19T10:19:56.138Z,28.04
2022-08-19T10:21:04.437Z,28.35
2022-08-19T10:22:00.331Z,28.23
2022-08-19T10:22:57.175Z,28.14
2022-08-19T10:23:58.329Z,28.39
2022-08-19T10:24:57.151Z,28.49
2022-08-19T10:26:00.502Z,28.53
2022-08-19T10:26:59.832Z,28.45
2022-08-19T10:27:57.218Z,28.54
2022-08-19T10:28:57.948Z,28.36
2022-08-19T10:29:57.241Z,28.39
2022-08-19T10:30:57.316Z,28.75
2022-08-19T10:32:02.339Z,28.35
2022-08-19T10:32:59.585Z,28.28
2022-08-19T10:34:00.221Z,28.41
2022-08-19T10:34:59.598Z,28.28
2022-08-19T10:36:00.648Z,28.61
2022-08-19T10:37:00.856Z,28.49
2022-08-19T10:38:01.935Z,28.42
2022-08-19T10:39:01.032Z,28.49
2022-08-19T10:39:59.794Z,28.58
2022-08-19T10:41:07.029Z,28.51
2022-08-19T10:42:07.624Z,28.32
2022-08-19T10:43:04.051Z,28.32
2022-08-19T10:44:08.652Z,28.29
2022-08-19T10:45:05.683Z,28.81
2022-08-19T10:46:09.617Z,28.49
2022-08-19T10:47:17.766Z,28.47
2022-08-19T10:48:07.499Z,28.23
2022-08-19T10:49:09.676Z,28.16
2022-08-19T10:50:08.898Z,28.3
2022-08-19T10:51:09.185Z,28.32
2022-08-19T10:52:10.300Z,28.3
2022-08-19T10:53:09.879Z,28.57
2022-08-19T10:54:12.694Z,28.15
2022-08-19T10:55:09.400Z,28.28
2022-08-19T10:56:09.355Z,28.6
2022-08-19T10:57:09.383Z,28.82
2022-08-19T10:59:13.308Z,28.36
2022-08-19T11:00:13.333Z,28.57
2022-08-19T11:01:12.966Z,28.52
2022-08-19T11:02:12.975Z,28.6
2022-08-19T11:03:13.127Z,28.37
2022-08-19T11:04:13.112Z,28.45
2022-08-19T11:05:13.688Z,28.91
2022-08-19T11:06:13.007Z,28.54
2022-08-19T11:07:13.081Z,28.54
2022-08-19T11:08:23.263Z,28.37
2022-08-19T11:09:19.475Z,28.36
2022-08-19T11:10:20.920Z,28.4
2022-08-19T11:11:18.080Z,28.45
2022-08-19T11:12:17.962Z,28.47
2022-08-19T11:13:17.919Z,28.62
2022-08-19T11:14:19.154Z,28.52
2022-08-19T11:15:18.143Z,28.36
2022-08-19T11:16:19.435Z,28.38
2022-08-19T11:17:17.924Z,28.42
2022-08-19T11:18:17.980Z,28.48
2022-08-19T11:19:18.543Z,28.5
2022-08-19T11:20:18.287Z,28.33
2022-08-19T11:21:20.014Z,28.33
2022-08-19T11:22:19.471Z,28.53
2022-08-19T11:23:18.093Z,28.56
2022-08-19T11:24:19.563Z,28.34
2022-08-19T11:25:18.293Z,28.33
2022-08-19T11:26:18.640Z,28.61
2022-08-19T11:27:18.052Z,28.32
2022-08-19T11:28:18.154Z,28.42
2022-08-19T11:29:19.626Z,28.47
2022-08-19T11:30:18.191Z,28.46
2022-08-19T11:31:19.772Z,28.82
2022-08-19T11:32:18.246Z,28.68
2022-08-19T11:33:18.231Z,28.37
2022-08-19T11:34:23.262Z,28.27
2022-08-19T11:35:20.002Z,28.51
2022-08-19T11:36:20.545Z,28.5
2022-08-19T11:37:19.749Z,28.65
2022-08-19T11:38:19.812Z,28.71
2022-08-19T11:39:21.588Z,28.81
2022-08-19T11:40:20.157Z,28.42
2022-08-19T11:41:20.663Z,28.32
2022-08-19T11:42:19.860Z,28.46
2022-08-19T11:43:19.810Z,28.47
2022-08-19T11:44:19.940Z,28.34
2022-08-19T11:45:19.901Z,28.41
2022-08-19T11:46:19.985Z,28.46
2022-08-19T11:47:20.413Z,28.6
2022-08-19T11:48:20.102Z,28.7
2022-08-19T11:49:21.129Z,28.53
2022-08-19T11:50:20.587Z,28.44
2022-08-19T11:51:21.494Z,28.26
2022-08-19T11:52:20.057Z,28.47
2022-08-19T11:53:20.604Z,28.46
2022-08-19T11:54:20.029Z,28.55
2022-08-19T11:55:20.064Z,28.53
2022-08-19T11:56:20.428Z,28.54
2022-08-19T11:57:20.222Z,28.69
2022-08-19T11:58:20.201Z,28.59
2022-08-19T11:59:20.178Z,28.72
2022-08-19T12:00:20.355Z,28.95
2022-08-19T12:01:22.110Z,28.85
2022-08-19T12:02:20.570Z,28.66
2022-08-19T12:03:20.253Z,28.68
2022-08-19T12:04:20.427Z,28.63
2022-08-19T12:05:20.268Z,28.58
2022-08-19T12:06:22.251Z,28.55
2022-08-19T12:07:20.287Z,28.49
2022-08-19T12:08:20.545Z,28.68
2022-08-19T12:09:20.321Z,28.8
2022-08-19T12:10:24.538Z,28.61
2022-08-19T12:11:22.736Z,28.63
2022-08-19T12:12:22.809Z,28.5
2022-08-19T12:13:23.149Z,28.61
2022-08-19T12:14:22.966Z,28.7
2022-08-19T12:15:22.843Z,28.83
2022-08-19T12:16:24.799Z,28.85
2022-08-19T12:17:31.901Z,28.88
2022-08-19T12:18:23.779Z,28.72
2022-08-19T12:19:23.429Z,28.39
2022-08-19T12:20:24.289Z,28.61
2022-08-19T12:21:24.660Z,28.52
2022-08-19T12:22:23.713Z,28.58
2022-08-19T12:23:23.559Z,28.57
2022-08-19T12:24:23.497Z,28.5
2022-08-19T12:25:23.514Z,28.57
2022-08-19T12:26:24.489Z,28.54
2022-08-19T12:27:31.928Z,28.9
2022-08-19T12:28:27.633Z,28.77
2022-08-19T12:29:27.802Z,28.54
2022-08-19T12:30:27.892Z,28.62
2022-08-19T12:31:28.485Z,28.42
2022-08-19T12:32:27.822Z,28.66
2022-08-19T12:33:27.757Z,28.73
2022-08-19T12:34:28.654Z,28.82
2022-08-19T12:35:27.696Z,28.95
2022-08-19T12:36:27.737Z,28.6
2022-08-19T12:37:27.765Z,28.72
2022-08-19T12:38:27.783Z,28.92
2022-08-19T12:39:27.931Z,29.09
2022-08-19T12:40:27.821Z,29.09
2022-08-19T12:41:27.676Z,29.21
2022-08-19T12:42:27.878Z,29.16
2022-08-19T12:43:28.006Z,29.08
2022-08-19T12:44:29.520Z,29.26
2022-08-19T12:45:29.193Z,29.17
2022-08-19T12:46:29.121Z,28.98
2022-08-19T12:47:29.241Z,29.2
2022-08-19T12:48:33.641Z,29.22
2022-08-19T12:49:54.203Z,29.21
2022-08-19T12:50:33.909Z,29.14
2022-08-19T12:51:33.986Z,29.36
2022-08-19T12:52:33.923Z,29.31
2022-08-19T12:53:34.002Z,29.55
2022-08-19T12:54:34.333Z,29.17
2022-08-19T12:55:34.151Z,29.48
2022-08-19T12:56:34.092Z,29.63
2022-08-19T12:57:33.996Z,29.4
2022-08-19T12:58:34.147Z,29.49
2022-08-19T12:59:34.290Z,29.25
2022-08-19T13:00:34.168Z,29.47
2022-08-19T13:01:34.069Z,29.38
2022-08-19T13:02:38.127Z,29.33
2022-08-19T13:03:38.682Z,29.43
2022-08-19T13:04:37.063Z,29.35
2022-08-19T13:05:37.105Z,29.38
2022-08-19T13:06:37.223Z,29.46
2022-08-19T13:07:37.729Z,29.48
2022-08-19T13:08:37.488Z,29.57
2022-08-19T13:09:37.235Z,29.25
2022-08-19T13:10:37.115Z,29.47
2022-08-19T13:11:37.752Z,29.48
2022-08-19T13:12:37.183Z,29.71
2022-08-19T13:13:37.540Z,29.68
2022-08-19T13:14:37.228Z,29.42
2022-08-19T13:15:39.913Z,29.37
2022-08-19T13:16:37.263Z,29.58
2022-08-19T13:17:37.551Z,29.87
2022-08-19T13:18:37.670Z,29.46
2022-08-19T13:19:37.902Z,29.51
2022-08-19T13:20:37.724Z,29.38
2022-08-19T13:21:37.650Z,29.58